Time;durP1;ratioP1;P1;durP2;ratioP2;P2;SDS_P1;SDS_P2;PMS_P1;PMS_P2;Temp;Humidity;BMP_temperature;BMP_pressure;BME280_temperature;BME280_humidity;BME280_pressure;Samples;Min_cycle;Max_cycle;Signal;HPM_P1;HPM_P2
2022/04/23 00:02:18;;;;;;;15.27;6.97;;;11.30;99.90;;;;;;5071961;28;20053;-64
2022/04/23 00:04:44;;;;;;;14.05;6.43;;;11.30;99.90;;;;;;5071564;28;20044;-63
2022/04/23 00:07:09;;;;;;;11.55;7.13;;;11.20;99.90;;;;;;5073113;28;20044;-64
2022/04/23 00:09:35;;;;;;;10.48;6.65;;;11.20;99.90;;;;;;5071540;28;20051;-64
2022/04/23 00:12:01;;;;;;;12.30;6.57;;;11.10;99.90;;;;;;5072887;28;20371;-64
2022/04/23 00:14:27;;;;;;;10.05;6.70;;;11.10;99.90;;;;;;5072934;28;20102;-63
2022/04/23 00:16:54;;;;;;;11.95;7.00;;;11.00;99.90;;;;;;5054822;28;20469;-63
2022/04/23 00:19:20;;;;;;;11.60;7.10;;;11.00;99.90;;;;;;5071601;28;20090;-64
2022/04/23 00:21:46;;;;;;;12.38;7.15;;;10.90;99.90;;;;;;5071151;28;20048;-64
2022/04/23 00:24:12;;;;;;;11.25;7.20;;;10.90;99.90;;;;;;5072467;28;20501;-64
2022/04/23 00:26:40;;;;;;;14.10;7.22;;;10.80;99.90;;;;;;5072122;28;20040;-64
2022/04/23 00:29:06;;;;;;;13.00;7.20;;;10.80;99.90;;;;;;5070856;28;20406;-63
2022/04/23 00:31:32;;;;;;;11.48;7.57;;;10.70;99.90;;;;;;5072468;28;20036;-64
2022/04/23 00:33:58;;;;;;;10.90;7.30;;;10.70;99.90;;;;;;5072020;28;20040;-64
2022/04/23 00:36:23;;;;;;;13.30;8.20;;;10.70;99.90;;;;;;5072439;28;20105;-64
2022/04/23 00:38:52;;;;;;;11.52;7.30;;;10.70;99.90;;;;;;5071625;28;20044;-64
2022/04/23 00:44:04;;;;;;;13.00;8.18;;;10.60;99.90;;;;;;5072171;28;20052;-65
2022/04/23 00:46:30;;;;;;;14.52;8.98;;;10.60;99.90;;;;;;5072089;28;20505;-64
2022/04/23 00:48:55;;;;;;;11.75;7.72;;;10.60;99.90;;;;;;5071806;28;20418;-64
2022/04/23 00:51:21;;;;;;;12.18;8.20;;;10.60;99.90;;;;;;5071936;28;20040;-64
2022/04/23 00:53:49;;;;;;;14.27;8.48;;;10.60;99.90;;;;;;5071135;28;20045;-65
2022/04/23 00:56:16;;;;;;;12.02;8.02;;;10.60;99.90;;;;;;5072020;28;20516;-64
2022/04/23 00:58:43;;;;;;;10.90;7.50;;;10.60;99.90;;;;;;5054099;28;20094;-63
2022/04/23 01:01:09;;;;;;;14.98;7.68;;;10.60;99.90;;;;;;5071909;28;20059;-63
2022/04/23 01:03:36;;;;;;;14.60;9.00;;;10.60;99.90;;;;;;5072045;28;20036;-64
2022/04/23 01:06:02;;;;;;;13.00;7.65;;;10.60;99.90;;;;;;5070261;28;20186;-63
2022/04/23 01:08:28;;;;;;;14.85;8.20;;;10.60;99.90;;;;;;5071890;28;20538;-64
2022/04/23 01:10:53;;;;;;;11.45;8.48;;;10.60;99.90;;;;;;5071215;28;20087;-64
2022/04/23 01:13:19;;;;;;;11.80;8.57;;;10.60;99.90;;;;;;5070817;28;20496;-64
2022/04/23 01:16:05;;;;;;;16.38;9.38;;;10.60;99.90;;;;;;5070128;28;20041;-64
2022/04/23 01:18:32;;;;;;;14.30;9.75;;;10.60;99.90;;;;;;5071787;28;20145;-64
2022/04/23 01:21:02;;;;;;;18.58;9.57;;;10.60;99.90;;;;;;5053520;28;20052;-64
2022/04/23 01:23:29;;;;;;;13.50;8.93;;;10.60;99.90;;;;;;5053852;28;20131;-64
2022/04/23 01:25:55;;;;;;;11.57;8.48;;;10.50;99.90;;;;;;5071039;28;20037;-64
2022/04/23 01:28:22;;;;;;;11.70;8.90;;;10.50;99.90;;;;;;5071080;28;20055;-64
2022/04/23 01:30:49;;;;;;;11.32;8.32;;;10.50;99.90;;;;;;5071100;28;20106;-64
2022/04/23 01:33:15;;;;;;;14.10;9.07;;;10.50;99.90;;;;;;5071295;28;20075;-63
2022/04/23 01:35:41;;;;;;;11.63;9.05;;;10.50;99.90;;;;;;5070332;28;20129;-63
2022/04/23 01:38:07;;;;;;;11.57;8.50;;;10.40;99.90;;;;;;5053250;28;20072;-63
2022/04/23 01:40:33;;;;;;;12.57;9.32;;;10.40;99.90;;;;;;5071057;28;20051;-64
2022/04/23 01:42:58;;;;;;;12.88;8.20;;;10.40;99.90;;;;;;5069739;28;20052;-64
2022/04/23 01:45:24;;;;;;;14.38;9.10;;;10.40;99.90;;;;;;5071211;28;20040;-64
2022/04/23 01:47:50;;;;;;;13.73;8.32;;;10.40;99.90;;;;;;5071026;28;20048;-64
2022/04/23 01:50:16;;;;;;;11.52;9.05;;;10.40;99.90;;;;;;5071260;28;20463;-64
2022/04/23 01:52:41;;;;;;;11.45;8.73;;;10.40;99.90;;;;;;5071277;28;20052;-63
2022/04/23 01:55:08;;;;;;;16.63;9.35;;;10.40;99.90;;;;;;5070747;28;20052;-64
2022/04/23 01:57:33;;;;;;;11.98;9.57;;;10.30;99.90;;;;;;5071101;28;20090;-64
2022/04/23 01:59:59;;;;;;;11.00;8.90;;;10.30;99.90;;;;;;5070783;28;20082;-65
2022/04/23 02:02:24;;;;;;;12.90;9.32;;;10.20;99.90;;;;;;5071090;28;20040;-63
2022/04/23 02:04:50;;;;;;;11.38;9.18;;;10.20;99.90;;;;;;5070486;28;20113;-64
2022/04/23 02:07:16;;;;;;;14.80;9.40;;;10.20;99.90;;;;;;5070207;28;20113;-65
2022/04/23 02:09:42;;;;;;;14.88;10.20;;;10.10;99.90;;;;;;5070655;28;20052;-64
2022/04/23 02:12:08;;;;;;;13.25;9.90;;;10.10;99.90;;;;;;5069223;28;20041;-65
2022/04/23 02:14:35;;;;;;;12.60;9.68;;;10.10;99.90;;;;;;5070595;28;20509;-65
2022/04/23 02:17:01;;;;;;;16.63;9.93;;;10.10;99.90;;;;;;5070523;28;20048;-65
2022/04/23 02:19:28;;;;;;;15.98;11.43;;;10.00;99.90;;;;;;5070642;28;20355;-63
2022/04/23 02:21:53;;;;;;;15.63;10.75;;;10.00;99.90;;;;;;5052610;28;20055;-64
2022/04/23 02:24:19;;;;;;;17.67;10.30;;;10.00;99.90;;;;;;5069564;28;20048;-63
2022/04/23 02:26:45;;;;;;;14.45;10.82;;;10.20;99.90;;;;;;5070622;28;20045;-63
2022/04/23 02:29:11;;;;;;;15.25;10.18;;;9.90;99.90;;;;;;5052890;28;20045;-64
2022/04/23 02:31:36;;;;;;;18.98;10.55;;;9.90;99.90;;;;;;5036836;28;20048;-64
2022/04/23 02:34:02;;;;;;;14.73;10.20;;;9.90;99.90;;;;;;5070503;28;20358;-64
2022/04/23 02:36:28;;;;;;;15.32;10.48;;;9.80;99.90;;;;;;5069941;28;20048;-65
2022/04/23 02:38:54;;;;;;;13.68;10.10;;;9.80;99.90;;;;;;5069198;28;20128;-64
2022/04/23 02:41:19;;;;;;;16.40;10.80;;;9.80;99.90;;;;;;5072954;28;20060;-65
2022/04/23 02:43:45;;;;;;;15.40;10.10;;;9.70;99.90;;;;;;5074834;28;20406;-65
2022/04/23 02:46:15;;;;;;;15.30;9.60;;;9.70;99.90;;;;;;5072699;28;20048;-66
2022/04/23 02:48:41;;;;;;;16.80;10.30;;;9.70;99.90;;;;;;5074422;28;20091;-64
2022/04/23 02:51:06;;;;;;;14.70;10.13;;;9.70;99.90;;;;;;5074363;28;20056;-64
2022/04/23 02:53:33;;;;;;;13.38;9.88;;;9.70;99.90;;;;;;5056842;28;20044;-67
2022/04/23 02:56:02;;;;;;;18.42;9.98;;;9.70;99.90;;;;;;5073626;28;20482;-65
2022/04/23 02:58:28;;;;;;;15.15;10.73;;;9.60;99.90;;;;;;5056744;28;20080;-64
2022/04/23 03:00:54;;;;;;;12.57;9.90;;;9.70;99.90;;;;;;5039856;28;20125;-65
2022/04/23 03:03:21;;;;;;;14.13;9.93;;;9.60;99.90;;;;;;5073944;28;20040;-65
2022/04/23 03:05:47;;;;;;;13.05;9.00;;;9.60;99.90;;;;;;5072884;28;20047;-64
2022/04/23 03:08:14;;;;;;;15.25;10.68;;;9.60;99.90;;;;;;5073682;28;20128;-66
2022/04/23 03:10:41;;;;;;;13.18;9.50;;;9.60;99.90;;;;;;5074040;28;20127;-65
2022/04/23 03:13:07;;;;;;;12.52;9.82;;;9.60;99.90;;;;;;5072718;28;20115;-64
2022/04/23 03:15:34;;;;;;;15.50;10.27;;;9.60;99.90;;;;;;5072777;28;20091;-65
2022/04/23 03:18:04;;;;;;;15.82;10.73;;;9.60;99.90;;;;;;5055823;28;20059;-65
2022/04/23 03:20:31;;;;;;;12.73;9.23;;;9.60;99.90;;;;;;5073875;28;20098;-64
2022/04/23 03:22:56;;;;;;;14.65;10.40;;;9.60;99.90;;;;;;5056141;28;20048;-65
2022/04/23 03:25:22;;;;;;;11.52;9.50;;;9.60;99.90;;;;;;5073308;28;20033;-65
2022/04/23 03:27:48;;;;;;;11.23;9.23;;;9.60;99.90;;;;;;5073589;28;20050;-67
2022/04/23 03:30:14;;;;;;;12.15;9.65;;;9.60;99.90;;;;;;5072355;28;20335;-65
2022/04/23 03:32:41;;;;;;;14.63;9.60;;;9.60;99.90;;;;;;5072713;28;20056;-66
2022/04/23 03:35:07;;;;;;;13.95;9.57;;;9.70;99.90;;;;;;5073529;28;20410;-65
2022/04/23 03:37:34;;;;;;;11.07;8.80;;;9.70;99.90;;;;;;5072716;28;20051;-65
2022/04/23 03:40:04;;;;;;;12.35;9.00;;;9.70;99.90;;;;;;5072271;28;20228;-65
2022/04/23 03:42:29;;;;;;;12.13;8.95;;;9.70;99.90;;;;;;5071984;28;20544;-65
2022/04/23 03:44:55;;;;;;;14.90;9.07;;;9.70;99.90;;;;;;5073708;28;20053;-64
2022/04/23 03:47:21;;;;;;;12.95;9.15;;;9.70;99.90;;;;;;5073208;28;20044;-64
2022/04/23 03:49:46;;;;;;;12.07;8.75;;;9.70;99.90;;;;;;5071868;28;20405;-64
2022/04/23 03:52:12;;;;;;;10.18;8.25;;;9.70;99.90;;;;;;5071577;28;20071;-64
2022/04/23 03:54:38;;;;;;;10.65;8.52;;;9.80;99.90;;;;;;5073228;28;20041;-66
2022/04/23 03:57:04;;;;;;;14.27;9.63;;;9.70;99.90;;;;;;5055084;28;20044;-66
2022/04/23 03:59:30;;;;;;;10.88;8.45;;;9.70;99.90;;;;;;5073262;28;20548;-65
2022/04/23 04:01:56;;;;;;;11.68;9.98;;;9.70;99.90;;;;;;5072070;28;20075;-65
2022/04/23 04:04:22;;;;;;;12.10;8.77;;;9.70;99.90;;;;;;5072866;28;20045;-65
2022/04/23 04:06:48;;;;;;;11.57;8.90;;;9.70;99.90;;;;;;5071721;28;20094;-65
2022/04/23 04:09:14;;;;;;;10.98;9.05;;;9.60;99.90;;;;;;5055034;28;20398;-64
2022/04/23 04:14:24;;;;;;;12.27;9.70;;;9.60;99.90;;;;;;5072714;28;20045;-65
2022/04/23 04:16:50;;;;;;;12.27;9.95;;;9.50;99.90;;;;;;5071755;28;20068;-65
2022/04/23 04:19:17;;;;;;;13.18;10.38;;;9.50;99.90;;;;;;5072331;28;20048;-65
2022/04/23 04:21:43;;;;;;;13.50;9.90;;;9.40;99.90;;;;;;5071863;28;20056;-65
2022/04/23 04:24:16;;;;;;;13.63;10.50;;;9.40;99.90;;;;;;5072210;28;20048;-64
2022/04/23 04:26:43;;;;;;;13.25;10.13;;;9.40;99.90;;;;;;5071544;28;20406;-65
2022/04/23 04:29:10;;;;;;;12.43;9.55;;;9.40;99.90;;;;;;5072286;28;20044;-65
2022/04/23 04:31:49;;;;;;;12.23;9.32;;;9.40;99.90;;;;;;5072487;28;20402;-65
2022/04/23 04:34:23;;;;;;;13.57;9.95;;;9.40;99.90;;;;;;5072292;28;20056;-64
2022/04/23 04:36:50;;;;;;;13.85;10.38;;;9.30;99.90;;;;;;5071255;28;20397;-65
2022/04/23 04:39:17;;;;;;;13.00;10.48;;;9.30;99.90;;;;;;5071073;28;20060;-65
2022/04/23 04:41:43;;;;;;;15.13;9.77;;;9.30;99.90;;;;;;5072414;28;20531;-64
2022/04/23 04:44:09;;;;;;;11.63;9.57;;;9.30;99.90;;;;;;5072139;28;20045;-65
2022/04/23 04:46:36;;;;;;;14.20;10.23;;;9.30;99.90;;;;;;5072538;28;20182;-64
2022/04/23 04:49:03;;;;;;;12.48;9.90;;;9.30;99.90;;;;;;5072305;28;20056;-64
2022/04/23 04:51:29;;;;;;;11.98;9.27;;;9.30;99.90;;;;;;5070725;28;20056;-65
2022/04/23 04:53:56;;;;;;;12.00;9.07;;;9.30;99.90;;;;;;5071982;28;20044;-65
2022/04/23 04:56:22;;;;;;;14.57;9.32;;;9.20;99.90;;;;;;5071895;28;20048;-65
2022/04/23 04:58:48;;;;;;;12.85;9.55;;;9.20;99.90;;;;;;5054518;28;20057;-64
2022/04/23 05:01:15;;;;;;;13.75;9.10;;;9.30;99.90;;;;;;5071525;28;20121;-66
2022/04/23 05:03:40;;;;;;;14.60;10.13;;;9.30;99.90;;;;;;5070167;28;20110;-64
2022/04/23 05:06:07;;;;;;;13.18;9.65;;;9.30;99.90;;;;;;5071842;28;20498;-65
2022/04/23 05:08:34;;;;;;;12.52;9.55;;;9.30;99.90;;;;;;5071783;28;20044;-65
2022/04/23 05:11:00;;;;;;;11.75;9.48;;;9.30;99.90;;;;;;5070709;28;20120;-65
2022/04/23 05:13:26;;;;;;;11.63;9.40;;;9.30;99.90;;;;;;5053705;28;20153;-65
2022/04/23 05:15:52;;;;;;;14.43;9.90;;;9.30;99.90;;;;;;5054098;28;20120;-65
2022/04/23 05:18:17;;;;;;;11.35;9.30;;;9.40;99.90;;;;;;5070102;28;20044;-65
2022/04/23 05:20:43;;;;;;;10.13;8.27;;;9.50;99.90;;;;;;5070300;28;20040;-65
2022/04/23 05:23:09;;;;;;;10.40;8.32;;;9.50;99.90;;;;;;5071743;28;20041;-66
2022/04/23 05:25:35;;;;;;;11.52;9.00;;;9.70;99.90;;;;;;5069992;28;20452;-65
2022/04/23 05:28:00;;;;;;;12.38;8.77;;;10.00;99.90;;;;;;5071713;28;20136;-64
2022/04/23 05:30:26;;;;;;;12.30;8.32;;;10.60;99.90;;;;;;5071269;28;20067;-64
2022/04/23 05:32:52;;;;;;;9.05;7.38;;;11.20;99.90;;;;;;5071449;28;20045;-65
2022/04/23 05:35:18;;;;;;;9.63;7.97;;;11.80;99.90;;;;;;5071349;28;20047;-65
2022/04/23 05:37:44;;;;;;;10.93;7.38;;;12.20;99.90;;;;;;5070471;28;20401;-65
2022/04/23 05:40:10;;;;;;;9.05;7.47;;;12.50;99.90;;;;;;5070535;28;20536;-65
2022/04/23 05:42:35;;;;;;;10.50;8.23;;;12.80;99.90;;;;;;5070449;28;20048;-65
2022/04/23 05:45:01;;;;;;;11.00;8.02;;;13.00;99.90;;;;;;5070097;28;20121;-65
2022/04/23 05:47:27;;;;;;;9.20;7.65;;;13.50;99.90;;;;;;5070745;28;20040;-65
2022/04/23 05:49:52;;;;;;;8.93;7.28;;;13.80;99.90;;;;;;5069594;28;20052;-65
2022/04/23 05:52:18;;;;;;;9.35;7.25;;;14.00;99.90;;;;;;5052881;28;20367;-66
2022/04/23 05:54:44;;;;;;;10.20;7.00;;;14.10;99.90;;;;;;5053423;28;20044;-65
2022/04/23 05:57:10;;;;;;;8.90;7.55;;;14.20;99.90;;;;;;5069825;28;20052;-66
2022/04/23 05:59:35;;;;;;;9.23;7.28;;;14.30;99.90;;;;;;5070849;28;20053;-65
2022/04/23 06:02:02;;;;;;;9.27;6.90;;;14.50;99.90;;;;;;5070900;28;20041;-65
2022/04/23 06:04:29;;;;;;;9.55;6.65;;;14.90;99.90;;;;;;5070409;28;20044;-66
2022/04/23 06:06:55;;;;;;;8.57;6.97;;;15.20;99.90;;;;;;5070850;28;20052;-65
2022/04/23 06:09:21;;;;;;;8.48;6.88;;;15.30;99.90;;;;;;5069038;28;20052;-65
2022/04/23 06:11:46;;;;;;;10.32;6.93;;;15.30;99.90;;;;;;5069581;28;20390;-65
2022/04/23 06:14:12;;;;;;;8.65;6.72;;;15.60;99.90;;;;;;5071819;28;20131;-65
2022/04/23 06:16:38;;;;;;;10.70;7.47;;;15.80;99.90;;;;;;5073377;28;20044;-65
2022/04/23 06:19:05;;;;;;;9.40;7.22;;;16.00;99.80;;;;;;5073664;28;20080;-65
2022/04/23 06:21:31;;;;;;;8.52;7.22;;;16.20;99.90;;;;;;5056709;28;20193;-66
2022/04/23 06:23:56;;;;;;;7.22;6.43;;;16.40;99.00;;;;;;5074973;28;20512;-65
2022/04/23 06:26:22;;;;;;;7.22;6.53;;;16.40;98.40;;;;;;5074437;28;20051;-65
2022/04/23 06:28:48;;;;;;;7.45;6.53;;;16.50;98.70;;;;;;5074416;28;20121;-66
2022/04/23 06:31:14;;;;;;;8.13;7.05;;;16.50;98.00;;;;;;5075069;28;20045;-65
2022/04/23 06:33:42;;;;;;;8.95;7.00;;;16.70;98.10;;;;;;5073269;28;20044;-64
2022/04/23 06:36:10;;;;;;;7.88;7.05;;;16.80;97.90;;;;;;5074664;28;20051;-66
2022/04/23 06:38:36;;;;;;;10.45;7.60;;;16.90;96.50;;;;;;5073197;28;20074;-64
2022/04/23 06:41:03;;;;;;;8.55;7.30;;;17.00;97.00;;;;;;5074517;28;20052;-66
2022/04/23 06:43:28;;;;;;;7.65;6.85;;;17.40;97.00;;;;;;5074138;28;20052;-64
2022/04/23 06:45:54;;;;;;;7.93;6.55;;;17.70;95.80;;;;;;5073311;28;20455;-64
2022/04/23 06:48:20;;;;;;;8.73;7.68;;;17.60;96.20;;;;;;5073409;28;20052;-65
2022/04/23 06:50:46;;;;;;;9.35;7.80;;;18.00;95.00;;;;;;5056163;28;20371;-66
2022/04/23 06:53:11;;;;;;;9.13;7.20;;;18.30;95.20;;;;;;5073391;28;20044;-64
2022/04/23 06:55:37;;;;;;;7.93;6.07;;;18.40;94.10;;;;;;5073730;28;20048;-65
2022/04/23 06:58:03;;;;;;;9.55;6.90;;;18.40;93.20;;;;;;5074307;28;20048;-65
2022/04/23 07:00:29;;;;;;;8.90;7.43;;;18.50;93.40;;;;;;5072709;28;20183;-66
2022/04/23 07:02:55;;;;;;;9.10;7.38;;;18.60;92.70;;;;;;5074332;28;20045;-65
2022/04/23 07:05:21;;;;;;;9.32;7.95;;;18.60;93.20;;;;;;5073078;28;20448;-65
2022/04/23 07:07:57;;;;;;;8.60;7.70;;;18.70;92.00;;;;;;5056221;28;20052;-66
2022/04/23 07:10:25;;;;;;;8.40;6.85;;;18.70;92.00;;;;;;5056566;28;20052;-66
2022/04/23 07:12:52;;;;;;;9.95;7.88;;;18.60;91.50;;;;;;5072329;28;20110;-65
2022/04/23 07:15:19;;;;;;;9.10;7.63;;;18.50;91.20;;;;;;5073785;28;20040;-65
2022/04/23 07:17:46;;;;;;;8.70;6.90;;;18.50;91.10;;;;;;5055857;28;20049;-66
2022/04/23 07:20:13;;;;;;;8.65;7.10;;;18.40;90.50;;;;;;5056303;28;20500;-65
2022/04/23 07:22:38;;;;;;;8.32;7.43;;;18.30;90.70;;;;;;5073627;28;20123;-65
2022/04/23 07:25:07;;;;;;;8.57;7.50;;;18.60;91.00;;;;;;5071928;28;20542;-66
2022/04/23 07:27:32;;;;;;;9.00;6.85;;;18.80;90.70;;;;;;5073416;28;20087;-66
2022/04/23 07:29:58;;;;;;;10.13;7.25;;;18.90;90.20;;;;;;5073020;28;20477;-65
2022/04/23 07:32:25;;;;;;;7.57;6.50;;;19.20;90.50;;;;;;5073841;28;20060;-67
2022/04/23 07:37:36;;;;;;;7.68;6.88;;;19.20;88.30;;;;;;5058054;28;20135;-64
2022/04/23 07:40:05;;;;;;;8.55;6.40;;;19.40;88.70;;;;;;5072535;28;20135;-66
2022/04/23 07:42:32;;;;;;;7.40;6.32;;;19.20;87.70;;;;;;5073307;28;20060;-67
2022/04/23 07:44:58;;;;;;;7.72;6.63;;;19.40;86.10;;;;;;5072268;28;20056;-64
2022/04/23 07:47:24;;;;;;;7.80;6.40;;;19.20;86.30;;;;;;5073619;28;20052;-66
2022/04/23 07:49:50;;;;;;;10.40;6.78;;;19.30;86.10;;;;;;5072975;28;20132;-64
2022/04/23 07:52:16;;;;;;;9.20;6.95;;;19.30;84.50;;;;;;5055558;28;20106;-65
2022/04/23 07:54:43;;;;;;;7.97;6.80;;;19.20;85.30;;;;;;5055155;28;20052;-66
2022/04/23 07:57:10;;;;;;;8.02;6.47;;;19.60;86.00;;;;;;5073439;28;20114;-65
2022/04/23 07:59:43;;;;;;;9.85;7.07;;;19.90;84.80;;;;;;5071896;28;20084;-65
2022/04/23 08:02:10;;;;;;;7.38;6.63;;;20.50;84.50;;;;;;5073059;28;20498;-66
2022/04/23 08:04:36;;;;;;;8.70;7.13;;;20.50;82.60;;;;;;5072624;28;20080;-65
2022/04/23 08:07:01;;;;;;;6.85;6.15;;;20.20;81.90;;;;;;5073020;28;20084;-65
2022/04/23 08:09:27;;;;;;;8.85;6.97;;;20.20;80.40;;;;;;5073221;28;20044;-65
2022/04/23 08:11:54;;;;;;;8.95;6.90;;;20.10;80.60;;;;;;5072555;28;20052;-65
2022/04/23 08:14:20;;;;;;;10.48;7.00;;;20.20;79.90;;;;;;5071545;28;20121;-65
2022/04/23 08:16:49;;;;;;;8.27;6.88;;;20.40;79.80;;;;;;5071815;28;20045;-65
2022/04/23 08:19:17;;;;;;;9.70;6.88;;;20.80;79.40;;;;;;5071516;28;20056;-65
2022/04/23 08:21:43;;;;;;;10.63;7.40;;;20.90;77.90;;;;;;5071077;28;20044;-65
2022/04/23 08:24:09;;;;;;;8.77;7.07;;;20.80;77.10;;;;;;5072816;28;20077;-64
2022/04/23 08:26:34;;;;;;;7.03;6.32;;;20.60;78.00;;;;;;5054564;28;20451;-65
2022/04/23 08:31:44;;;;;;;8.45;7.65;;;20.70;77.60;;;;;;5071166;28;20084;-64
2022/04/23 08:34:10;;;;;;;7.85;6.93;;;21.10;76.30;;;;;;5054822;28;20141;-65
2022/04/23 08:36:36;;;;;;;7.97;7.18;;;20.90;76.00;;;;;;5071786;28;20041;-64
2022/04/23 08:39:04;;;;;;;9.68;8.02;;;21.00;76.10;;;;;;5054034;28;20494;-65
2022/04/23 08:41:31;;;;;;;9.27;7.30;;;21.00;76.20;;;;;;5072355;28;20060;-66
2022/04/23 08:44:05;;;;;;;8.60;7.70;;;20.90;76.10;;;;;;5072020;28;20055;-65
2022/04/23 08:46:36;;;;;;;9.45;7.38;;;20.90;75.50;;;;;;5071021;28;20045;-66
2022/04/23 08:49:34;;;;;;;8.10;7.22;;;20.90;74.80;;;;;;5070147;28;20494;-66
2022/04/23 08:52:11;;;;;;;8.68;6.93;;;20.80;75.10;;;;;;5071592;28;20056;-66
2022/04/23 08:54:38;;;;;;;9.18;6.63;;;20.60;75.20;;;;;;5071296;28;20055;-66
2022/04/23 08:57:04;;;;;;;9.30;6.90;;;20.40;76.20;;;;;;5069808;28;20101;-66
2022/04/23 08:59:30;;;;;;;8.07;6.72;;;20.70;76.90;;;;;;5071603;28;20051;-65
2022/04/23 09:01:56;;;;;;;9.00;7.78;;;21.00;75.20;;;;;;5070022;28;20041;-63
2022/04/23 09:04:22;;;;;;;8.63;7.82;;;20.90;75.00;;;;;;5071699;28;20047;-65
2022/04/23 09:06:48;;;;;;;8.40;7.55;;;21.10;75.20;;;;;;5071465;28;20040;-64
2022/04/23 09:09:20;;;;;;;7.80;6.97;;;20.90;73.70;;;;;;5066876;28;20080;-68
2022/04/23 09:11:49;;;;;;;11.63;8.02;;;20.80;73.50;;;;;;5069142;28;20075;-66
2022/04/23 09:14:26;;;;;;;8.10;6.40;;;20.50;74.50;;;;;;5070112;28;20101;-65
2022/04/23 09:25:16;;;;;;;8.90;7.38;;;20.70;73.10;;;;;;5071531;28;20051;-65
2022/04/23 09:27:43;;;;;;;8.73;6.18;;;20.60;74.00;;;;;;5069803;28;20052;-65
2022/04/23 09:30:12;;;;;;;11.02;7.18;;;20.40;73.80;;;;;;5053252;28;20041;-69
2022/04/23 09:32:56;;;;;;;12.65;6.72;;;20.10;73.60;;;;;;5071398;28;20123;-65
2022/04/23 09:35:23;;;;;;;7.97;7.18;;;19.80;73.40;;;;;;5053801;28;20076;-65
2022/04/23 09:40:33;;;;;;;;;;;18.60;74.80;;;;;;5070252;28;20048;-65
2022/04/23 09:43:09;;;;;;;10.20;7.70;;;18.20;76.00;;;;;;5036670;28;19920;-65
2022/04/23 09:45:41;;;;;;;8.73;6.95;;;18.00;77.50;;;;;;5071208;28;20040;-66
2022/04/23 09:48:17;;;;;;;11.30;7.82;;;17.70;78.60;;;;;;5069623;28;20111;-65
2022/04/23 09:50:46;;;;;;;10.05;8.30;;;17.70;79.30;;;;;;5071200;28;20084;-65
2022/04/23 09:53:14;;;;;;;12.23;7.47;;;17.80;79.80;;;;;;5070235;28;20074;-67
2022/04/23 09:55:40;;;;;;;10.75;7.85;;;17.90;79.40;;;;;;5053958;28;20086;-65
2022/04/23 09:58:08;;;;;;;8.88;6.95;;;18.00;78.80;;;;;;5069666;28;20048;-66
2022/04/23 10:00:41;;;;;;;8.35;7.47;;;18.00;77.80;;;;;;5053338;28;20056;-65
2022/04/23 10:03:08;;;;;;;10.98;7.20;;;17.90;77.20;;;;;;5069886;28;20045;-65
2022/04/23 10:05:45;;;;;;;9.77;7.85;;;17.80;76.60;;;;;;5070980;28;20490;-66
2022/04/23 10:08:13;;;;;;;9.85;7.82;;;17.60;78.00;;;;;;5070691;28;20074;-65
2022/04/23 10:10:42;;;;;;;8.43;7.53;;;17.50;78.70;;;;;;5070218;28;20050;-65
2022/04/23 10:13:10;;;;;;;8.38;5.90;;;17.50;79.90;;;;;;5069948;28;20082;-66
2022/04/23 10:15:37;;;;;;;10.05;7.57;;;17.60;76.90;;;;;;5053305;28;20064;-65
2022/04/23 10:18:10;;;;;;;7.85;6.72;;;17.50;77.20;;;;;;5070642;28;20055;-65
2022/04/23 10:20:40;;;;;;;9.23;7.22;;;17.60;77.60;;;;;;5071173;28;20052;-65
2022/04/23 10:23:11;;;;;;;8.15;6.78;;;17.60;76.90;;;;;;5053391;28;20074;-65
2022/04/23 10:26:20;;;;;;;9.10;6.95;;;17.60;76.70;;;;;;5070143;28;20040;-64
2022/04/23 10:28:48;;;;;;;9.52;7.38;;;17.50;76.60;;;;;;5050353;28;20064;-64
2022/04/23 10:31:16;;;;;;;8.07;7.28;;;17.30;77.10;;;;;;5069565;28;20084;-65
2022/04/23 10:33:49;;;;;;;11.57;6.95;;;17.30;77.60;;;;;;5070057;28;20053;-65
2022/04/23 10:36:17;;;;;;;8.15;5.82;;;17.40;78.00;;;;;;5070605;28;20036;-64
2022/04/23 10:38:51;;;;;;;6.80;5.97;;;17.30;77.10;;;;;;5069569;28;20051;-66
2022/04/23 10:41:23;;;;;;;8.30;6.07;;;17.30;76.60;;;;;;5052268;28;20502;-64
2022/04/23 10:43:52;;;;;;;8.38;6.13;;;17.20;76.20;;;;;;5069539;28;20154;-65
2022/04/23 10:46:37;;;;;;;7.57;5.80;;;17.20;76.80;;;;;;5052452;28;20041;-65
2022/04/23 10:49:15;;;;;;;7.82;6.18;;;17.20;76.10;;;;;;5069923;28;20053;-64
2022/04/23 10:51:48;;;;;;;7.57;6.18;;;17.20;77.40;;;;;;5070614;28;20052;-65
2022/04/23 10:54:16;;;;;;;8.43;5.63;;;17.30;77.40;;;;;;5069346;28;20052;-65
2022/04/23 10:56:43;;;;;;;7.40;5.85;;;17.30;75.00;;;;;;5069146;28;20036;-64
2022/04/23 10:59:44;;;;;;;8.35;6.00;;;17.20;74.90;;;;;;5069852;28;20051;-66
2022/04/23 11:02:30;;;;;;;10.30;6.03;;;17.00;75.40;;;;;;5073721;28;20135;-64
2022/04/23 11:13:39;;;;;;;7.65;6.05;;;17.00;75.20;;;;;;5058745;28;20294;-65
2022/04/23 11:16:18;;;;;;;8.80;5.78;;;17.00;76.20;;;;;;5073304;28;20044;-65
2022/04/23 11:18:52;;;;;;;7.75;5.95;;;17.00;77.40;;;;;;5072212;28;20048;-65
2022/04/23 11:21:26;;;;;;;7.35;5.90;;;17.10;76.20;;;;;;5072278;28;20105;-64
2022/04/23 11:23:55;;;;;;;;;;;17.20;75.70;;;;;;5056479;28;20182;-66
2022/04/23 11:26:51;;;;;;;6.53;5.50;;;17.20;76.30;;;;;;5073104;28;19965;-65
2022/04/23 11:29:21;;;;;;;5.78;5.15;;;17.30;75.70;;;;;;5073838;28;20084;-64
2022/04/23 11:31:55;;;;;;;6.10;5.25;;;17.30;75.00;;;;;;5073959;28;20135;-64
2022/04/23 11:34:22;;;;;;;7.75;5.70;;;17.30;75.40;;;;;;5073450;28;20044;-65
2022/04/23 11:36:48;;;;;;;7.05;5.38;;;17.40;75.70;;;;;;5072330;28;20509;-64
2022/04/23 11:39:14;;;;;;;8.02;5.47;;;17.40;75.50;;;;;;5072124;28;20049;-64
2022/04/23 11:41:48;;;;;;;6.80;5.35;;;17.40;75.40;;;;;;5072021;28;20060;-64
2022/04/23 11:44:16;;;;;;;5.70;5.07;;;17.30;75.10;;;;;;5072177;28;20567;-65
2022/04/23 11:46:51;;;;;;;8.18;5.03;;;17.30;75.10;;;;;;5072134;28;20102;-65
2022/04/23 11:49:31;;;;;;;8.43;5.45;;;17.40;73.30;;;;;;5071982;28;20045;-64
2022/04/23 11:52:05;;;;;;;9.73;5.03;;;17.40;73.60;;;;;;5073616;28;20406;-65
2022/04/23 11:54:42;;;;;;;6.38;4.70;;;17.40;74.70;;;;;;5073579;28;20578;-66
2022/04/23 11:57:12;;;;;;;5.60;4.63;;;17.40;74.60;;;;;;5070286;28;20048;-65
2022/04/23 11:59:46;;;;;;;6.05;4.53;;;17.40;71.60;;;;;;5072719;28;20094;-65
2022/04/23 12:02:25;;;;;;;5.78;4.88;;;17.40;72.00;;;;;;5071777;28;20052;-65
2022/04/23 12:04:55;;;;;;;6.47;5.60;;;17.30;72.10;;;;;;5072938;28;20052;-66
2022/04/23 12:07:22;;;;;;;8.73;5.72;;;17.30;73.00;;;;;;5071340;28;20093;-63
2022/04/23 12:09:51;;;;;;;8.15;5.30;;;17.30;72.10;;;;;;5072681;28;20051;-63
2022/04/23 12:12:28;;;;;;;5.60;4.80;;;17.30;72.90;;;;;;5072289;28;20068;-63
2022/04/23 12:15:04;;;;;;;7.45;5.38;;;17.30;71.30;;;;;;5072013;28;20056;-64
2022/04/23 12:17:42;;;;;;;6.00;5.03;;;17.30;71.60;;;;;;5071244;28;20050;-63
2022/04/23 12:20:12;;;;;;;5.57;4.00;;;17.30;71.00;;;;;;5071409;28;20399;-65
2022/04/23 12:22:39;;;;;;;6.63;5.10;;;17.30;71.30;;;;;;5073170;28;20052;-63
2022/04/23 12:25:19;;;;;;;8.30;5.93;;;17.20;70.90;;;;;;5072745;28;20048;-63
2022/04/23 12:42:10;;;;;;;6.70;4.93;;;17.20;72.50;;;;;;5072141;28;20056;-63
2022/04/23 12:44:42;;;;;;;5.80;4.20;;;17.30;71.90;;;;;;5072394;28;20048;-64
2022/04/23 12:47:17;;;;;;;7.18;4.28;;;17.30;70.60;;;;;;5038435;28;20052;-66
2022/04/23 12:50:03;;;;;;;5.22;4.03;;;17.30;69.80;;;;;;5072271;28;20058;-65
2022/04/23 12:52:44;;;;;;;9.23;5.05;;;17.30;70.10;;;;;;5054349;28;20067;-63
2022/04/23 12:55:14;;;;;;;5.00;4.00;;;17.30;70.00;;;;;;5072059;28;20055;-63
2022/04/23 12:57:44;;;;;;;5.20;3.65;;;17.30;70.00;;;;;;5072071;28;20599;-64
2022/04/23 13:00:13;;;;;;;4.55;3.75;;;17.30;70.20;;;;;;5072100;28;20098;-64
2022/04/23 13:02:40;;;;;;;7.82;4.28;;;17.40;71.20;;;;;;5071815;28;20482;-64
2022/04/23 13:05:08;;;;;;;7.55;4.40;;;17.40;70.60;;;;;;5054336;28;20499;-64
2022/04/23 13:10:19;;;;;;;5.47;3.40;;;17.50;70.20;;;;;;5070441;28;20045;-64
2022/04/23 13:12:45;;;;;;;6.65;4.30;;;17.40;69.80;;;;;;5054334;28;20059;-63
2022/04/23 13:15:11;;;;;;;5.57;3.95;;;17.40;69.40;;;;;;5071577;28;20052;-63
2022/04/23 13:17:41;;;;;;;6.15;4.78;;;17.40;69.50;;;;;;5070404;28;20045;-67
2022/04/23 13:20:08;;;;;;;6.55;4.50;;;17.40;69.40;;;;;;5070572;28;20051;-63
2022/04/23 13:22:35;;;;;;;6.82;4.00;;;17.30;69.30;;;;;;5070051;28;20048;-64
2022/04/23 13:25:05;;;;;;;7.10;3.83;;;17.30;69.80;;;;;;5053654;28;20501;-64
2022/04/23 13:27:31;;;;;;;5.18;3.72;;;17.40;70.00;;;;;;5070137;28;20052;-64
2022/04/23 13:29:58;;;;;;;7.75;4.13;;;17.30;70.20;;;;;;5071699;28;20055;-63
2022/04/23 13:32:24;;;;;;;5.40;4.00;;;17.30;69.60;;;;;;5071200;28;20049;-64
2022/04/23 13:34:50;;;;;;;5.18;3.20;;;17.30;70.50;;;;;;5070474;28;20102;-63
2022/04/23 13:37:16;;;;;;;4.78;3.35;;;17.30;68.90;;;;;;5070256;28;20153;-66